sensor_id;sensor_type;location;lat;lon;timestamp;pressure;altitude;pressure_sealevel;temperature;humidity
28626;BME280;18905;42.668;23.364;2023-02-20T00:00:19;95370.53;;;10.93;87.66
28626;BME280;18905;42.668;23.364;2023-02-20T00:02:46;95379.47;;;11.02;87.98
28626;BME280;18905;42.668;23.364;2023-02-20T00:05:12;95369.09;;;10.87;88.55
28626;BME280;18905;42.668;23.364;2023-02-20T00:07:37;95373.84;;;10.81;91.63
28626;BME280;18905;42.668;23.364;2023-02-20T00:10:02;95371.44;;;10.80;92.45
28626;BME280;18905;42.668;23.364;2023-02-20T00:12:28;95384.81;;;10.85;92.32
28626;BME280;18905;42.668;23.364;2023-02-20T00:14:53;95373.66;;;10.78;92.65
28626;BME280;18905;42.668;23.364;2023-02-20T00:17:18;95380.78;;;10.74;94.21
28626;BME280;18905;42.668;23.364;2023-02-20T00:19:44;95384.75;;;10.68;94.87
28626;BME280;18905;42.668;23.364;2023-02-20T00:22:09;95383.63;;;10.69;95.35
28626;BME280;18905;42.668;23.364;2023-02-20T00:24:34;95386.38;;;10.47;98.03
28626;BME280;18905;42.668;23.364;2023-02-20T00:27:00;95377.84;;;10.53;97.36
28626;BME280;18905;42.668;23.364;2023-02-20T00:29:25;95382.44;;;10.53;98.02
28626;BME280;18905;42.668;23.364;2023-02-20T00:31:55;95379.97;;;10.65;97.24
28626;BME280;18905;42.668;23.364;2023-02-20T00:34:21;95382.06;;;10.68;97.06
28626;BME280;18905;42.668;23.364;2023-02-20T00:36:47;95376.59;;;10.59;98.39
28626;BME280;18905;42.668;23.364;2023-02-20T00:39:12;95381.41;;;10.71;98.40
28626;BME280;18905;42.668;23.364;2023-02-20T00:41:38;95376.06;;;10.49;99.97
28626;BME280;18905;42.668;23.364;2023-02-20T00:44:03;95369.19;;;10.43;100.00
28626;BME280;18905;42.668;23.364;2023-02-20T00:46:28;95330.66;;;10.20;100.00
28626;BME280;18905;42.668;23.364;2023-02-20T00:48:54;95366.47;;;10.34;100.00
28626;BME280;18905;42.668;23.364;2023-02-20T00:51:19;95382.09;;;10.46;100.00
28626;BME280;18905;42.668;23.364;2023-02-20T00:53:44;95374.56;;;10.34;100.00
28626;BME280;18905;42.668;23.364;2023-02-20T00:56:09;95380.44;;;10.36;100.00
28626;BME280;18905;42.668;23.364;2023-02-20T00:58:35;95391.53;;;10.35;100.00
28626;BME280;18905;42.668;23.364;2023-02-20T01:01:00;95396.50;;;10.41;100.00
28626;BME280;18905;42.668;23.364;2023-02-20T01:03:25;95386.19;;;10.43;100.00
28626;BME280;18905;42.668;23.364;2023-02-20T01:05:50;95390.56;;;10.31;100.00
28626;BME280;18905;42.668;23.364;2023-02-20T01:08:16;95413.34;;;10.16;100.00
28626;BME280;18905;42.668;23.364;2023-02-20T01:10:41;95411.44;;;10.03;100.00
28626;BME280;18905;42.668;23.364;2023-02-20T01:13:06;95414.25;;;10.12;100.00
28626;BME280;18905;42.668;23.364;2023-02-20T01:15:31;95422.25;;;10.03;100.00
28626;BME280;18905;42.668;23.364;2023-02-20T01:17:57;95426.84;;;10.03;100.00
28626;BME280;18905;42.668;23.364;2023-02-20T01:20:23;95435.84;;;9.98;100.00
28626;BME280;18905;42.668;23.364;2023-02-20T01:22:48;95428.41;;;10.17;100.00
28626;BME280;18905;42.668;23.364;2023-02-20T01:25:13;95443.56;;;10.05;100.00
28626;BME280;18905;42.668;23.364;2023-02-20T01:27:39;95449.19;;;9.81;100.00
28626;BME280;18905;42.668;23.364;2023-02-20T01:30:04;95449.53;;;9.66;100.00
28626;BME280;18905;42.668;23.364;2023-02-20T01:32:30;95450.88;;;9.91;100.00
28626;BME280;18905;42.668;23.364;2023-02-20T01:34:55;95446.63;;;10.12;100.00
28626;BME280;18905;42.668;23.364;2023-02-20T01:37:20;95443.50;;;10.18;100.00
28626;BME280;18905;42.668;23.364;2023-02-20T01:39:46;95441.06;;;9.95;100.00
28626;BME280;18905;42.668;23.364;2023-02-20T01:42:13;95438.03;;;10.10;100.00
28626;BME280;18905;42.668;23.364;2023-02-20T01:44:41;95441.50;;;9.88;100.00
28626;BME280;18905;42.668;23.364;2023-02-20T01:47:08;95441.06;;;9.95;100.00
28626;BME280;18905;42.668;23.364;2023-02-20T01:49:40;95452.16;;;9.93;100.00
28626;BME280;18905;42.668;23.364;2023-02-20T01:52:16;95448.75;;;10.23;100.00
28626;BME280;18905;42.668;23.364;2023-02-20T01:54:42;95444.44;;;10.14;100.00
28626;BME280;18905;42.668;23.364;2023-02-20T01:57:12;95430.16;;;10.00;100.00
28626;BME280;18905;42.668;23.364;2023-02-20T01:59:37;95444.44;;;10.00;100.00
28626;BME280;18905;42.668;23.364;2023-02-20T02:02:05;95437.25;;;9.96;100.00
28626;BME280;18905;42.668;23.364;2023-02-20T02:04:30;95460.63;;;10.14;100.00
28626;BME280;18905;42.668;23.364;2023-02-20T02:06:57;95449.94;;;9.95;100.00
28626;BME280;18905;42.668;23.364;2023-02-20T02:09:25;95457.03;;;9.91;100.00
28626;BME280;18905;42.668;23.364;2023-02-20T02:11:53;95446.75;;;10.07;100.00
28626;BME280;18905;42.668;23.364;2023-02-20T02:14:18;95445.59;;;9.86;100.00
28626;BME280;18905;42.668;23.364;2023-02-20T02:17:21;95451.06;;;9.81;100.00
28626;BME280;18905;42.668;23.364;2023-02-20T02:22:12;95449.34;;;9.63;100.00
28626;BME280;18905;42.668;23.364;2023-02-20T02:47:46;95471.31;;;9.16;100.00
28626;BME280;18905;42.668;23.364;2023-02-20T02:50:14;95470.31;;;9.12;100.00
28626;BME280;18905;42.668;23.364;2023-02-20T02:52:41;95471.91;;;8.86;100.00
28626;BME280;18905;42.668;23.364;2023-02-20T02:55:16;95473.81;;;8.99;100.00
28626;BME280;18905;42.668;23.364;2023-02-20T02:57:41;95481.72;;;9.09;100.00
28626;BME280;18905;42.668;23.364;2023-02-20T03:00:09;95492.25;;;8.92;100.00
28626;BME280;18905;42.668;23.364;2023-02-20T03:02:38;95477.50;;;8.89;100.00
28626;BME280;18905;42.668;23.364;2023-02-20T03:05:05;95511.97;;;8.74;100.00
28626;BME280;18905;42.668;23.364;2023-02-20T03:07:33;95512.88;;;8.83;100.00
28626;BME280;18905;42.668;23.364;2023-02-20T03:10:00;95519.47;;;8.77;100.00
28626;BME280;18905;42.668;23.364;2023-02-20T03:12:27;95508.81;;;8.85;100.00
28626;BME280;18905;42.668;23.364;2023-02-20T03:14:58;95514.22;;;8.99;100.00
28626;BME280;18905;42.668;23.364;2023-02-20T03:17:44;95516.00;;;9.03;100.00
28626;BME280;18905;42.668;23.364;2023-02-20T03:20:12;95501.44;;;8.91;100.00
28626;BME280;18905;42.668;23.364;2023-02-20T03:28:12;95517.97;;;8.84;100.00
28626;BME280;18905;42.668;23.364;2023-02-20T03:33:21;95537.97;;;8.65;100.00
28626;BME280;18905;42.668;23.364;2023-02-20T03:36:08;95544.81;;;8.57;100.00
28626;BME280;18905;42.668;23.364;2023-02-20T03:38:58;95546.28;;;8.31;100.00
28626;BME280;18905;42.668;23.364;2023-02-20T03:41:44;95547.44;;;8.62;100.00
28626;BME280;18905;42.668;23.364;2023-02-20T03:44:29;95543.81;;;8.53;100.00
28626;BME280;18905;42.668;23.364;2023-02-20T03:46:56;95546.31;;;8.63;100.00
28626;BME280;18905;42.668;23.364;2023-02-20T03:49:24;95544.44;;;8.64;100.00
28626;BME280;18905;42.668;23.364;2023-02-20T03:51:51;95550.56;;;8.69;100.00
28626;BME280;18905;42.668;23.364;2023-02-20T03:54:16;95538.88;;;8.60;100.00
28626;BME280;18905;42.668;23.364;2023-02-20T03:56:44;95539.69;;;8.74;100.00
28626;BME280;18905;42.668;23.364;2023-02-20T03:59:18;95537.84;;;8.56;100.00
28626;BME280;18905;42.668;23.364;2023-02-20T04:01:45;95541.47;;;8.65;100.00
28626;BME280;18905;42.668;23.364;2023-02-20T04:04:11;95535.31;;;8.46;100.00
28626;BME280;18905;42.668;23.364;2023-02-20T04:06:38;95536.88;;;8.66;100.00
28626;BME280;18905;42.668;23.364;2023-02-20T04:09:06;95541.19;;;8.67;100.00
28626;BME280;18905;42.668;23.364;2023-02-20T04:14:02;95556.69;;;8.56;100.00
28626;BME280;18905;42.668;23.364;2023-02-20T04:16:27;95550.00;;;8.54;100.00
28626;BME280;18905;42.668;23.364;2023-02-20T04:18:53;95549.38;;;8.57;100.00
28626;BME280;18905;42.668;23.364;2023-02-20T04:21:20;95547.44;;;8.62;100.00
28626;BME280;18905;42.668;23.364;2023-02-20T04:23:49;95540.44;;;8.61;100.00
28626;BME280;18905;42.668;23.364;2023-02-20T04:26:21;95560.25;;;8.52;100.00
28626;BME280;18905;42.668;23.364;2023-02-20T04:28:48;95561.91;;;8.48;100.00
28626;BME280;18905;42.668;23.364;2023-02-20T04:31:14;95552.44;;;8.69;100.00
28626;BME280;18905;42.668;23.364;2023-02-20T04:33:40;95552.00;;;8.62;100.00
28626;BME280;18905;42.668;23.364;2023-02-20T04:36:05;95558.84;;;8.54;100.00
28626;BME280;18905;42.668;23.364;2023-02-20T04:38:30;95557.63;;;8.65;100.00
28626;BME280;18905;42.668;23.364;2023-02-20T04:40:55;95535.59;;;8.45;100.00
28626;BME280;18905;42.668;23.364;2023-02-20T04:43:21;95554.53;;;8.40;100.00
28626;BME280;18905;42.668;23.364;2023-02-20T04:45:46;95543.44;;;8.41;100.00
28626;BME280;18905;42.668;23.364;2023-02-20T04:48:11;95550.38;;;8.47;100.00
28626;BME280;18905;42.668;23.364;2023-02-20T04:50:36;95560.97;;;8.39;100.00
28626;BME280;18905;42.668;23.364;2023-02-20T04:53:02;95568.19;;;8.25;100.00
28626;BME280;18905;42.668;23.364;2023-02-20T04:55:27;95571.97;;;8.42;100.00
28626;BME280;18905;42.668;23.364;2023-02-20T04:57:53;95574.22;;;8.35;100.00
28626;BME280;18905;42.668;23.364;2023-02-20T05:00:20;95576.78;;;8.27;100.00
28626;BME280;18905;42.668;23.364;2023-02-20T05:02:46;95577.56;;;8.27;100.00
28626;BME280;18905;42.668;23.364;2023-02-20T05:05:19;95578.81;;;8.35;100.00
28626;BME280;18905;42.668;23.364;2023-02-20T05:07:44;95574.78;;;8.14;100.00
28626;BME280;18905;42.668;23.364;2023-02-20T05:10:17;95571.69;;;8.25;100.00
28626;BME280;18905;42.668;23.364;2023-02-20T05:12:42;95586.19;;;8.06;100.00
28626;BME280;18905;42.668;23.364;2023-02-20T05:15:08;95590.16;;;8.32;100.00
28626;BME280;18905;42.668;23.364;2023-02-20T05:17:33;95599.91;;;8.28;100.00
28626;BME280;18905;42.668;23.364;2023-02-20T05:19:58;95594.06;;;8.21;100.00
28626;BME280;18905;42.668;23.364;2023-02-20T05:22:24;95587.91;;;8.20;100.00
28626;BME280;18905;42.668;23.364;2023-02-20T05:24:50;95590.09;;;8.13;100.00
28626;BME280;18905;42.668;23.364;2023-02-20T05:27:16;95584.56;;;8.28;100.00
28626;BME280;18905;42.668;23.364;2023-02-20T05:29:52;95606.44;;;8.40;97.96
28626;BME280;18905;42.668;23.364;2023-02-20T05:32:18;95615.13;;;8.14;99.28
28626;BME280;18905;42.668;23.364;2023-02-20T05:34:44;95605.06;;;8.24;99.82
28626;BME280;18905;42.668;23.364;2023-02-20T05:37:10;95633.56;;;8.25;100.00
28626;BME280;18905;42.668;23.364;2023-02-20T05:39:35;95635.91;;;8.32;99.13
28626;BME280;18905;42.668;23.364;2023-02-20T05:42:00;95641.63;;;8.25;100.00
28626;BME280;18905;42.668;23.364;2023-02-20T05:44:26;95634.38;;;8.26;100.00
28626;BME280;18905;42.668;23.364;2023-02-20T05:46:51;95633.84;;;8.24;100.00
28626;BME280;18905;42.668;23.364;2023-02-20T05:49:18;95637.97;;;8.16;100.00
28626;BME280;18905;42.668;23.364;2023-02-20T05:51:43;95642.88;;;8.33;100.00
28626;BME280;18905;42.668;23.364;2023-02-20T05:54:08;95638.94;;;8.25;100.00
28626;BME280;18905;42.668;23.364;2023-02-20T05:56:34;95640.72;;;8.35;100.00
28626;BME280;18905;42.668;23.364;2023-02-20T05:58:59;95640.97;;;8.52;100.00
28626;BME280;18905;42.668;23.364;2023-02-20T06:01:25;95639.81;;;8.39;100.00
28626;BME280;18905;42.668;23.364;2023-02-20T06:03:51;95647.97;;;8.53;100.00
28626;BME280;18905;42.668;23.364;2023-02-20T06:06:17;95649.31;;;8.55;100.00
28626;BME280;18905;42.668;23.364;2023-02-20T06:08:42;95649.81;;;8.76;100.00
28626;BME280;18905;42.668;23.364;2023-02-20T06:11:08;95652.53;;;8.71;100.00
28626;BME280;18905;42.668;23.364;2023-02-20T06:13:34;95634.13;;;8.78;100.00
28626;BME280;18905;42.668;23.364;2023-02-20T06:16:00;95654.00;;;8.82;96.00
28626;BME280;18905;42.668;23.364;2023-02-20T06:18:25;95659.06;;;9.02;94.26
28626;BME280;18905;42.668;23.364;2023-02-20T06:20:50;95645.69;;;8.97;87.85
28626;BME280;18905;42.668;23.364;2023-02-20T06:23:16;95645.88;;;9.00;84.30
28626;BME280;18905;42.668;23.364;2023-02-20T06:25:41;95650.97;;;9.20;83.62
28626;BME280;18905;42.668;23.364;2023-02-20T06:28:06;95652.34;;;10.93;74.03
28626;BME280;18905;42.668;23.364;2023-02-20T06:30:31;95665.53;;;11.17;69.41
28626;BME280;18905;42.668;23.364;2023-02-20T06:32:57;95666.56;;;12.69;62.48
28626;BME280;18905;42.668;23.364;2023-02-20T06:35:22;95660.59;;;12.41;60.89
28626;BME280;18905;42.668;23.364;2023-02-20T06:37:47;95679.09;;;12.39;61.95
28626;BME280;18905;42.668;23.364;2023-02-20T06:40:12;95665.78;;;13.62;58.08
28626;BME280;18905;42.668;23.364;2023-02-20T06:42:38;95661.16;;;14.54;55.27
28626;BME280;18905;42.668;23.364;2023-02-20T06:45:03;95664.34;;;12.71;61.33
28626;BME280;18905;42.668;23.364;2023-02-20T06:47:28;95669.94;;;12.91;62.09
28626;BME280;18905;42.668;23.364;2023-02-20T06:49:54;95671.94;;;14.71;62.80
28626;BME280;18905;42.668;23.364;2023-02-20T06:52:19;95660.47;;;15.07;71.61
28626;BME280;18905;42.668;23.364;2023-02-20T06:54:44;95666.25;;;12.87;56.71
28626;BME280;18905;42.668;23.364;2023-02-20T06:57:09;95665.56;;;12.00;59.04
28626;BME280;18905;42.668;23.364;2023-02-20T06:59:35;95676.34;;;11.83;60.34
28626;BME280;18905;42.668;23.364;2023-02-20T07:02:05;95665.44;;;10.51;64.08
28626;BME280;18905;42.668;23.364;2023-02-20T07:04:30;95665.19;;;10.25;66.02
28626;BME280;18905;42.668;23.364;2023-02-20T07:06:56;95687.47;;;10.44;66.26
28626;BME280;18905;42.668;23.364;2023-02-20T07:09:21;95673.28;;;11.10;65.06
28626;BME280;18905;42.668;23.364;2023-02-20T07:11:46;95677.81;;;11.67;62.63
28626;BME280;18905;42.668;23.364;2023-02-20T07:14:14;95683.59;;;11.30;60.16
28626;BME280;18905;42.668;23.364;2023-02-20T07:16:40;95683.03;;;11.86;59.83
28626;BME280;18905;42.668;23.364;2023-02-20T07:19:05;95691.53;;;11.48;58.33
28626;BME280;18905;42.668;23.364;2023-02-20T07:21:30;95680.13;;;10.94;60.21
28626;BME280;18905;42.668;23.364;2023-02-20T07:23:55;95705.41;;;12.08;57.23
28626;BME280;18905;42.668;23.364;2023-02-20T07:26:22;95679.34;;;11.82;56.58
28626;BME280;18905;42.668;23.364;2023-02-20T07:28:48;95704.53;;;12.21;55.50
28626;BME280;18905;42.668;23.364;2023-02-20T07:31:13;95673.41;;;11.71;53.52
28626;BME280;18905;42.668;23.364;2023-02-20T07:33:38;95700.88;;;11.20;55.73
28626;BME280;18905;42.668;23.364;2023-02-20T07:36:04;95716.06;;;11.52;55.59
28626;BME280;18905;42.668;23.364;2023-02-20T07:38:29;95718.06;;;11.60;55.49
28626;BME280;18905;42.668;23.364;2023-02-20T07:40:54;95712.34;;;11.92;54.45
28626;BME280;18905;42.668;23.364;2023-02-20T07:43:20;95716.53;;;11.54;53.58
28626;BME280;18905;42.668;23.364;2023-02-20T07:45:45;95719.59;;;11.17;55.22
28626;BME280;18905;42.668;23.364;2023-02-20T07:48:10;95723.66;;;11.50;54.69
28626;BME280;18905;42.668;23.364;2023-02-20T07:50:35;95711.91;;;11.10;55.24
28626;BME280;18905;42.668;23.364;2023-02-20T07:53:00;95717.59;;;11.44;54.77
28626;BME280;18905;42.668;23.364;2023-02-20T07:55:26;95724.47;;;11.28;54.14
28626;BME280;18905;42.668;23.364;2023-02-20T07:57:51;95727.88;;;11.78;53.74
28626;BME280;18905;42.668;23.364;2023-02-20T08:00:18;95734.59;;;12.11;53.09
28626;BME280;18905;42.668;23.364;2023-02-20T08:02:44;95749.16;;;12.71;51.26
28626;BME280;18905;42.668;23.364;2023-02-20T08:05:10;95747.09;;;12.85;50.63
28626;BME280;18905;42.668;23.364;2023-02-20T08:07:35;95725.81;;;12.14;50.53
28626;BME280;18905;42.668;23.364;2023-02-20T08:10:01;95727.22;;;12.03;51.08
28626;BME280;18905;42.668;23.364;2023-02-20T08:12:26;95734.22;;;12.04;52.20
28626;BME280;18905;42.668;23.364;2023-02-20T08:17:27;95733.19;;;12.61;49.62
28626;BME280;18905;42.668;23.364;2023-02-20T08:19:52;95736.72;;;12.70;50.13
28626;BME280;18905;42.668;23.364;2023-02-20T08:22:17;95732.78;;;12.93;49.32
28626;BME280;18905;42.668;23.364;2023-02-20T08:24:43;95737.53;;;12.96;49.41
28626;BME280;18905;42.668;23.364;2023-02-20T08:27:08;95731.47;;;12.82;49.11
28626;BME280;18905;42.668;23.364;2023-02-20T08:29:34;95736.72;;;12.70;49.70
28626;BME280;18905;42.668;23.364;2023-02-20T08:31:59;95729.94;;;12.98;48.99
28626;BME280;18905;42.668;23.364;2023-02-20T08:34:25;95729.09;;;12.81;49.01
28626;BME280;18905;42.668;23.364;2023-02-20T08:36:53;95724.31;;;12.86;48.56
28626;BME280;18905;42.668;23.364;2023-02-20T08:39:19;95719.53;;;12.83;48.13
28626;BME280;18905;42.668;23.364;2023-02-20T08:41:45;95729.13;;;12.98;49.18
28626;BME280;18905;42.668;23.364;2023-02-20T08:44:11;95731.00;;;12.80;49.07
28626;BME280;18905;42.668;23.364;2023-02-20T08:46:37;95743.69;;;13.19;48.07
28626;BME280;18905;42.668;23.364;2023-02-20T08:49:02;95731.31;;;12.87;49.06
28626;BME280;18905;42.668;23.364;2023-02-20T08:51:28;95732.97;;;13.31;47.92
28626;BME280;18905;42.668;23.364;2023-02-20T08:53:54;95730.44;;;13.17;48.49
28626;BME280;18905;42.668;23.364;2023-02-20T08:56:20;95739.50;;;13.04;47.72
28626;BME280;18905;42.668;23.364;2023-02-20T08:58:45;95746.72;;;13.43;47.91
28626;BME280;18905;42.668;23.364;2023-02-20T09:01:11;95735.09;;;13.25;48.22
28626;BME280;18905;42.668;23.364;2023-02-20T09:03:36;95741.59;;;13.75;47.53
28626;BME280;18905;42.668;23.364;2023-02-20T09:06:06;95722.13;;;12.41;48.74
28626;BME280;18905;42.668;23.364;2023-02-20T09:18:58;95713.53;;;13.37;46.48
28626;BME280;18905;42.668;23.364;2023-02-20T09:21:24;95704.75;;;13.57;46.04
28626;BME280;18905;42.668;23.364;2023-02-20T09:23:51;95712.00;;;13.99;45.65
28626;BME280;18905;42.668;23.364;2023-02-20T09:26:17;95706.66;;;13.40;46.27
28626;BME280;18905;42.668;23.364;2023-02-20T09:28:43;95706.16;;;13.80;45.90
28626;BME280;18905;42.668;23.364;2023-02-20T09:31:08;95714.47;;;14.30;45.14
28626;BME280;18905;42.668;23.364;2023-02-20T09:33:34;95714.75;;;14.45;44.72
28626;BME280;18905;42.668;23.364;2023-02-20T09:36:00;95698.94;;;14.39;44.48
28626;BME280;18905;42.668;23.364;2023-02-20T09:38:25;95733.28;;;13.80;46.06
28626;BME280;18905;42.668;23.364;2023-02-20T09:40:53;95702.84;;;13.41;46.32
28626;BME280;18905;42.668;23.364;2023-02-20T09:50:59;95719.03;;;12.81;49.06
28626;BME280;18905;42.668;23.364;2023-02-20T09:53:31;95700.94;;;13.07;48.37
28626;BME280;18905;42.668;23.364;2023-02-20T09:55:58;95716.53;;;13.10;47.97
28626;BME280;18905;42.668;23.364;2023-02-20T10:00:59;95740.84;;;12.68;48.57
28626;BME280;18905;42.668;23.364;2023-02-20T10:03:31;95724.06;;;13.47;47.49
28626;BME280;18905;42.668;23.364;2023-02-20T10:06:02;95732.31;;;13.93;46.47
28626;BME280;18905;42.668;23.364;2023-02-20T13:13:36;95635.06;;;14.82;41.22
28626;BME280;18905;42.668;23.364;2023-02-20T13:18:56;95630.47;;;14.16;42.22
28626;BME280;18905;42.668;23.364;2023-02-20T13:21:24;95602.06;;;14.14;42.91
28626;BME280;18905;42.668;23.364;2023-02-20T13:41:56;95670.97;;;14.38;42.96
28626;BME280;18905;42.668;23.364;2023-02-20T14:02:28;95651.91;;;13.63;48.67
28626;BME280;18905;42.668;23.364;2023-02-20T14:04:55;95650.41;;;14.29;50.42
28626;BME280;18905;42.668;23.364;2023-02-20T14:07:37;95656.03;;;15.76;52.57
28626;BME280;18905;42.668;23.364;2023-02-20T14:10:12;95658.75;;;15.43;51.50
28626;BME280;18905;42.668;23.364;2023-02-20T14:12:38;95664.84;;;16.05;51.13
28626;BME280;18905;42.668;23.364;2023-02-20T14:15:04;95650.00;;;15.17;48.21
28626;BME280;18905;42.668;23.364;2023-02-20T14:17:30;95643.13;;;15.32;47.00
28626;BME280;18905;42.668;23.364;2023-02-20T14:30:21;95672.81;;;12.86;47.31
28626;BME280;18905;42.668;23.364;2023-02-20T14:32:49;95670.25;;;12.73;47.84
28626;BME280;18905;42.668;23.364;2023-02-20T14:37:57;95681.72;;;12.78;47.91
28626;BME280;18905;42.668;23.364;2023-02-20T14:40:36;95677.00;;;12.28;48.52
28626;BME280;18905;42.668;23.364;2023-02-20T14:43:03;95690.59;;;12.45;48.73
28626;BME280;18905;42.668;23.364;2023-02-20T14:45:33;95689.63;;;12.49;49.32
28626;BME280;18905;42.668;23.364;2023-02-20T14:48:00;95681.84;;;12.56;49.08
28626;BME280;18905;42.668;23.364;2023-02-20T14:53:05;95687.91;;;12.14;50.05
28626;BME280;18905;42.668;23.364;2023-02-20T14:55:31;95691.66;;;12.27;50.12
28626;BME280;18905;42.668;23.364;2023-02-20T14:57:56;95685.88;;;12.20;50.01
28626;BME280;18905;42.668;23.364;2023-02-20T15:00:23;95693.47;;;12.09;50.25
28626;BME280;18905;42.668;23.364;2023-02-20T15:02:50;95706.63;;;12.33;49.80
28626;BME280;18905;42.668;23.364;2023-02-20T15:05:30;95698.13;;;12.17;50.38
28626;BME280;18905;42.668;23.364;2023-02-20T15:08:38;95701.78;;;11.82;51.21
28626;BME280;18905;42.668;23.364;2023-02-20T15:10:51;95694.38;;;11.65;51.62
28626;BME280;18905;42.668;23.364;2023-02-20T15:13:18;95686.19;;;11.79;51.50
28626;BME280;18905;42.668;23.364;2023-02-20T15:15:46;95688.31;;;11.91;51.59
28626;BME280;18905;42.668;23.364;2023-02-20T15:18:13;95682.78;;;11.73;51.83
28626;BME280;18905;42.668;23.364;2023-02-20T15:20:45;95680.47;;;11.58;52.40
28626;BME280;18905;42.668;23.364;2023-02-20T15:23:20;95698.47;;;11.63;52.52
28626;BME280;18905;42.668;23.364;2023-02-20T15:25:47;95676.94;;;11.58;52.64
28626;BME280;18905;42.668;23.364;2023-02-20T15:33:26;95711.97;;;10.97;54.11
28626;BME280;18905;42.668;23.364;2023-02-20T15:35:52;95700.50;;;10.78;55.14
28626;BME280;18905;42.668;23.364;2023-02-20T15:38:17;95699.56;;;10.96;55.12
28626;BME280;18905;42.668;23.364;2023-02-20T15:40:43;95699.31;;;10.70;55.67
28626;BME280;18905;42.668;23.364;2023-02-20T15:43:12;95703.91;;;10.70;55.58
28626;BME280;18905;42.668;23.364;2023-02-20T15:45:38;95689.66;;;10.56;56.03
28626;BME280;18905;42.668;23.364;2023-02-20T15:48:04;95683.66;;;10.81;55.21
28626;BME280;18905;42.668;23.364;2023-02-20T15:50:30;95694.53;;;10.54;55.94
28626;BME280;18905;42.668;23.364;2023-02-20T15:52:55;95690.81;;;10.63;55.61
28626;BME280;18905;42.668;23.364;2023-02-20T15:55:23;95692.44;;;10.51;56.28
28626;BME280;18905;42.668;23.364;2023-02-20T15:57:49;95693.16;;;10.43;56.94
28626;BME280;18905;42.668;23.364;2023-02-20T16:02:44;95700.47;;;10.29;58.52
28626;BME280;18905;42.668;23.364;2023-02-20T16:05:09;95712.53;;;10.45;58.48
28626;BME280;18905;42.668;23.364;2023-02-20T16:07:35;95715.47;;;10.48;58.46
28626;BME280;18905;42.668;23.364;2023-02-20T16:10:00;95721.06;;;10.38;58.30
28626;BME280;18905;42.668;23.364;2023-02-20T16:20:15;95719.09;;;9.85;61.15
28626;BME280;18905;42.668;23.364;2023-02-20T16:22:41;95718.94;;;9.95;61.33
28626;BME280;18905;42.668;23.364;2023-02-20T16:25:07;95706.59;;;9.75;62.34
28626;BME280;18905;42.668;23.364;2023-02-20T16:27:33;95708.03;;;10.00;61.58
28626;BME280;18905;42.668;23.364;2023-02-20T16:29:59;95715.31;;;9.86;62.00
28626;BME280;18905;42.668;23.364;2023-02-20T16:37:35;95728.97;;;9.76;63.23
28626;BME280;18905;42.668;23.364;2023-02-20T16:40:00;95729.28;;;10.01;62.50
28626;BME280;18905;42.668;23.364;2023-02-20T16:42:27;95736.28;;;9.75;63.36
28626;BME280;18905;42.668;23.364;2023-02-20T16:44:53;95738.81;;;9.67;64.41
28626;BME280;18905;42.668;23.364;2023-02-20T16:47:20;95738.41;;;9.60;64.67
28626;BME280;18905;42.668;23.364;2023-02-20T16:49:46;95738.50;;;9.55;65.10
28626;BME280;18905;42.668;23.364;2023-02-20T16:54:46;95745.31;;;9.34;66.78
28626;BME280;18905;42.668;23.364;2023-02-20T16:57:13;95737.59;;;9.46;66.69
28626;BME280;18905;42.668;23.364;2023-02-20T16:59:39;95734.81;;;9.32;66.72
28626;BME280;18905;42.668;23.364;2023-02-20T17:02:12;95742.72;;;9.61;66.47
28626;BME280;18905;42.668;23.364;2023-02-20T17:04:39;95742.16;;;9.45;65.88
28626;BME280;18905;42.668;23.364;2023-02-20T17:07:04;95745.75;;;9.41;66.54
28626;BME280;18905;42.668;23.364;2023-02-20T17:09:30;95751.31;;;9.63;65.89
28626;BME280;18905;42.668;23.364;2023-02-20T17:11:56;95747.44;;;9.37;66.40
28626;BME280;18905;42.668;23.364;2023-02-20T17:14:21;95759.16;;;9.46;66.91
28626;BME280;18905;42.668;23.364;2023-02-20T17:16:47;95748.53;;;9.36;67.43
28626;BME280;18905;42.668;23.364;2023-02-20T17:19:13;95750.53;;;9.44;66.71
28626;BME280;18905;42.668;23.364;2023-02-20T17:21:40;95749.47;;;9.45;66.76
28626;BME280;18905;42.668;23.364;2023-02-20T17:24:05;95755.22;;;9.38;67.33
28626;BME280;18905;42.668;23.364;2023-02-20T17:29:38;95765.59;;;9.13;68.84
28626;BME280;18905;42.668;23.364;2023-02-20T17:32:03;95758.38;;;9.27;68.65
28626;BME280;18905;42.668;23.364;2023-02-20T17:34:29;95758.47;;;9.22;68.68
28626;BME280;18905;42.668;23.364;2023-02-20T17:36:54;95763.16;;;9.30;68.37
28626;BME280;18905;42.668;23.364;2023-02-20T17:39:20;95758.28;;;9.13;68.75
28626;BME280;18905;42.668;23.364;2023-02-20T17:41:47;95751.81;;;8.96;69.71
28626;BME280;18905;42.668;23.364;2023-02-20T17:44:20;95761.34;;;9.25;68.90
28626;BME280;18905;42.668;23.364;2023-02-20T17:46:45;95764.34;;;9.24;68.60
28626;BME280;18905;42.668;23.364;2023-02-20T17:49:13;95760.91;;;9.18;68.60
28626;BME280;18905;42.668;23.364;2023-02-20T17:51:40;95756.41;;;8.95;69.71
28626;BME280;18905;42.668;23.364;2023-02-20T17:54:05;95750.50;;;9.12;69.83
28626;BME280;18905;42.668;23.364;2023-02-20T17:56:30;95748.69;;;9.07;80.03
28626;BME280;18905;42.668;23.364;2023-02-20T17:58:56;95751.34;;;9.90;100.00
28626;BME280;18905;42.668;23.364;2023-02-20T18:01:21;95745.88;;;9.49;78.95
28626;BME280;18905;42.668;23.364;2023-02-20T18:03:51;95751.63;;;8.92;77.63
28626;BME280;18905;42.668;23.364;2023-02-20T18:06:16;95745.34;;;8.97;77.36
28626;BME280;18905;42.668;23.364;2023-02-20T18:08:42;95754.91;;;9.08;76.60
28626;BME280;18905;42.668;23.364;2023-02-20T18:11:07;95754.13;;;9.21;74.21
28626;BME280;18905;42.668;23.364;2023-02-20T18:13:33;95740.03;;;8.92;76.19